Time,TemperatureF,DewpointF,PressureIn,WindDirection,WindDirectionDegrees,WindSpeedMPH,WindSpeedGustMPH,Humidity,HourlyPrecipIn,Conditions,Clouds,dailyrainin,SoftwareType,DateUTC
2013-04-18 07:02:00,71.0,65.0,30.13,ENE,76,7.0,19.0,80,0.00,,,0.01,,2013-04-18 17:02:00,
2013-04-18 07:12:00,71.0,63.0,30.13,NE,55,9.0,17.0,77,0.00,,,0.01,,2013-04-18 17:12:00,
2013-04-18 07:22:00,71.0,63.0,30.13,NE,55,9.0,17.0,77,0.00,,,0.01,,2013-04-18 17:22:00,
2013-04-18 07:33:00,71.0,64.0,30.14,ENE,65,4.0,16.0,78,0.00,,,0.01,,2013-04-18 17:33:00,
2013-04-18 07:42:00,71.0,64.0,30.14,ENE,68,8.0,14.0,79,0.00,,,0.01,,2013-04-18 17:42:00,
2013-04-18 07:52:00,71.0,64.0,30.14,ENE,68,8.0,14.0,79,0.00,,,0.01,,2013-04-18 17:52:00,
2013-04-18 08:02:00,72.0,65.0,30.14,ENE,76,10.0,22.0,78,0.00,,,0.01,,2013-04-18 18:02:00,
2013-04-18 08:12:00,71.0,65.0,30.14,ENE,78,12.0,22.0,80,0.00,,,0.01,,2013-04-18 18:12:00,
2013-04-18 08:22:00,71.0,65.0,30.14,ENE,78,12.0,22.0,80,0.00,,,0.01,,2013-04-18 18:22:00,
2013-04-18 08:32:00,72.0,65.0,30.15,ENE,74,8.0,16.0,78,0.00,,,0.01,,2013-04-18 18:32:00,
2013-04-18 08:42:00,72.0,64.0,30.16,NE,44,9.0,19.0,77,0.00,,,0.01,,2013-04-18 18:42:00,
2013-04-18 08:52:00,72.0,64.0,30.16,NE,44,9.0,19.0,77,0.00,,,0.01,,2013-04-18 18:52:00,
2013-04-18 09:02:00,73.0,65.0,30.16,NE,48,8.0,16.0,77,0.00,,,0.01,,2013-04-18 19:02:00,
2013-04-18 09:11:00,73.0,65.0,30.16,NE,48,8.0,16.0,77,0.00,,,0.01,,2013-04-18 19:11:00,
2013-04-18 09:22:00,74.0,65.0,30.16,East,82,7.0,16.0,73,0.00,,,0.01,,2013-04-18 19:22:00,
2013-04-18 09:31:00,74.0,65.0,30.17,East,92,10.0,16.0,74,0.00,,,0.01,,2013-04-18 19:31:00,
2013-04-18 09:42:00,74.0,65.0,30.17,East,92,10.0,16.0,74,0.00,,,0.01,,2013-04-18 19:42:00,
2013-04-18 09:52:00,75.0,65.0,30.17,ENE,61,7.0,14.0,71,0.00,,,0.01,,2013-04-18 19:52:00,
2013-04-18 10:01:00,75.0,65.0,30.16,NE,44,8.0,16.0,72,0.00,,,0.01,,2013-04-18 20:01:00,
2013-04-18 10:11:00,75.0,65.0,30.16,NE,44,8.0,16.0,72,0.00,,,0.01,,2013-04-18 20:11:00,
2013-04-18 10:22:00,75.0,65.0,30.16,East,85,7.0,18.0,72,0.00,,,0.01,,2013-04-18 20:22:00,
2013-04-18 10:32:00,74.0,65.0,30.16,NNE,18,12.0,22.0,73,0.00,,,0.01,,2013-04-18 20:32:00,
2013-04-18 10:42:00,75.0,65.0,30.16,NE,39,7.0,16.0,72,0.00,,,0.01,,2013-04-18 20:42:00,
2013-04-18 10:52:00,75.0,65.0,30.16,NE,39,7.0,16.0,72,0.00,,,0.01,,2013-04-18 20:52:00,
2013-04-18 11:02:00,75.0,65.0,30.16,ENE,78,10.0,22.0,72,0.00,,,0.01,,2013-04-18 21:02:00,
2013-04-18 11:11:00,76.0,65.0,30.16,ESE,103,10.0,17.0,69,0.00,,,0.01,,2013-04-18 21:11:00,
2013-04-18 11:21:00,76.0,65.0,30.16,ESE,103,10.0,17.0,69,0.00,,,0.01,,2013-04-18 21:21:00,
2013-04-18 11:32:00,76.0,65.0,30.16,ENE,77,13.0,22.0,68,0.00,,,0.01,,2013-04-18 21:32:00,
2013-04-18 11:43:00,76.0,65.0,30.16,East,80,10.0,23.0,69,0.00,,,0.01,,2013-04-18 21:43:00,
2013-04-18 11:53:00,76.0,65.0,30.16,East,80,10.0,23.0,69,0.00,,,0.01,,2013-04-18 21:53:00,
2013-04-18 12:02:00,76.0,66.0,30.16,East,81,7.0,23.0,71,0.00,,,0.01,,2013-04-18 22:02:00,
2013-04-18 12:12:00,76.0,66.0,30.15,ENE,68,6.0,18.0,71,0.00,,,0.01,,2013-04-18 22:12:00,
2013-04-18 12:22:00,76.0,66.0,30.15,ENE,68,6.0,18.0,71,0.00,,,0.01,,2013-04-18 22:22:00,
2013-04-18 12:32:00,76.0,67.0,30.14,East,86,9.0,16.0,73,0.00,,,0.01,,2013-04-18 22:32:00,
2013-04-18 12:42:00,75.0,68.0,30.14,NE,44,8.0,17.0,79,0.00,,,0.01,,2013-04-18 22:42:00,
2013-04-18 12:52:00,75.0,68.0,30.14,NE,44,8.0,17.0,79,0.00,,,0.01,,2013-04-18 22:52:00,
2013-04-18 13:03:00,75.0,67.0,30.14,East,96,10.0,21.0,77,0.00,,,0.01,,2013-04-18 23:03:00,
2013-04-18 13:11:00,75.0,68.0,30.13,North,5,9.0,18.0,78,0.00,,,0.01,,2013-04-18 23:11:00,
2013-04-18 13:21:00,75.0,68.0,30.13,North,5,9.0,18.0,78,0.00,,,0.01,,2013-04-18 23:21:00,
2013-04-18 13:32:00,75.0,67.0,30.13,ENE,71,9.0,19.0,76,0.00,,,0.01,,2013-04-18 23:32:00,
2013-04-18 13:42:00,76.0,67.0,30.12,NE,53,6.0,18.0,73,0.00,,,0.01,,2013-04-18 23:42:00,
2013-04-18 13:52:00,76.0,67.0,30.12,NE,53,6.0,18.0,73,0.00,,,0.01,,2013-04-18 23:52:00,
2013-04-18 14:01:00,77.0,68.0,30.11,NE,37,5.0,21.0,73,0.00,,,0.01,,2013-04-19 00:01:00,
2013-04-18 14:11:00,76.0,66.0,30.11,ENE,65,12.0,24.0,72,0.00,,,0.00,,2013-04-19 00:11:00,
2013-04-18 14:21:00,76.0,66.0,30.11,ENE,65,12.0,24.0,72,0.00,,,0.00,,2013-04-19 00:21:00,
2013-04-18 14:31:00,76.0,66.0,30.11,East,81,9.0,14.0,71,0.00,,,0.00,,2013-04-19 00:31:00,
2013-04-18 14:41:00,77.0,67.0,30.11,NE,56,8.0,12.0,71,0.00,,,0.00,,2013-04-19 00:41:00,
2013-04-18 14:51:00,77.0,67.0,30.11,NE,56,8.0,12.0,71,0.00,,,0.00,,2013-04-19 00:51:00,
2013-04-18 15:01:00,75.0,68.0,30.10,ENE,65,9.0,18.0,79,0.00,,,0.00,,2013-04-19 01:01:00,
2013-04-18 15:11:00,75.0,68.0,30.10,ENE,65,9.0,18.0,79,0.00,,,0.00,,2013-04-19 01:11:00,
2013-04-18 15:21:00,75.0,67.0,30.10,North,360,9.0,17.0,77,0.00,,,0.00,,2013-04-19 01:21:00,
2013-04-18 15:31:00,76.0,67.0,30.10,NE,35,6.0,17.0,75,0.00,,,0.00,,2013-04-19 01:31:00,
2013-04-18 15:42:00,76.0,67.0,30.10,NE,35,6.0,17.0,75,0.00,,,0.00,,2013-04-19 01:42:00,
2013-04-18 15:52:00,75.0,68.0,30.09,East,82,10.0,23.0,78,0.00,,,0.00,,2013-04-19 01:52:00,
2013-04-18 16:01:00,74.0,67.0,30.09,North,5,8.0,15.0,78,0.00,,,0.00,,2013-04-19 02:01:00,
2013-04-18 16:11:00,74.0,67.0,30.09,North,5,8.0,15.0,78,0.00,,,0.00,,2013-04-19 02:11:00,
2013-04-18 16:21:00,74.0,66.0,30.09,NNE,32,7.0,17.0,77,0.00,,,0.00,,2013-04-19 02:21:00,
2013-04-18 16:31:00,75.0,67.0,30.09,East,79,5.0,14.0,75,0.00,,,0.00,,2013-04-19 02:31:00,
2013-04-18 16:42:00,75.0,67.0,30.09,ENE,77,8.0,17.0,76,0.00,,,0.00,,2013-04-19 02:42:00,
2013-04-18 16:52:00,75.0,67.0,30.09,ENE,77,8.0,17.0,76,0.00,,,0.00,,2013-04-19 02:52:00,
2013-04-18 17:01:00,73.0,68.0,30.10,ENE,63,5.0,16.0,85,0.03,,,0.03,,2013-04-19 03:01:00,
2013-04-18 17:11:00,73.0,68.0,30.10,ENE,63,5.0,16.0,85,0.03,,,0.03,,2013-04-19 03:11:00,
2013-04-18 17:21:00,71.0,66.0,30.10,NNE,32,8.0,22.0,85,0.03,,,0.03,,2013-04-19 03:21:00,
2013-04-18 17:32:00,72.0,66.0,30.10,NE,52,10.0,17.0,82,0.03,,,0.03,,2013-04-19 03:32:00,
2013-04-18 17:43:00,72.0,66.0,30.10,NNE,13,8.0,18.0,81,0.03,,,0.03,,2013-04-19 03:43:00,
2013-04-18 17:53:00,72.0,66.0,30.10,NNE,13,8.0,18.0,81,0.03,,,0.03,,2013-04-19 03:53:00,
2013-04-18 18:03:00,73.0,67.0,30.10,ENE,64,11.0,22.0,81,0.00,,,0.03,,2013-04-19 04:03:00,
2013-04-18 18:12:00,73.0,67.0,30.10,ENE,64,11.0,22.0,81,0.00,,,0.03,,2013-04-19 04:12:00,
2013-04-18 18:23:00,73.0,66.0,30.11,East,82,9.0,19.0,79,0.00,,,0.03,,2013-04-19 04:23:00,
2013-04-18 18:32:00,72.0,65.0,30.11,ENE,57,7.0,13.0,80,0.00,,,0.03,,2013-04-19 04:32:00,
2013-04-18 18:43:00,72.0,65.0,30.12,ENE,78,7.0,17.0,80,0.00,,,0.03,,2013-04-19 04:43:00,
2013-04-18 18:52:00,72.0,65.0,30.12,ENE,78,7.0,17.0,80,0.00,,,0.03,,2013-04-19 04:52:00,
2013-04-18 19:02:00,72.0,65.0,30.12,East,83,10.0,17.0,79,0.00,,,0.03,,2013-04-19 05:02:00,
2013-04-18 19:11:00,72.0,65.0,30.12,East,83,10.0,17.0,79,0.00,,,0.03,,2013-04-19 05:11:00,
2013-04-18 19:22:00,72.0,65.0,30.12,ENE,65,7.0,17.0,79,0.00,,,0.03,,2013-04-19 05:22:00,
2013-04-18 19:31:00,72.0,65.0,30.13,East,88,7.0,22.0,79,0.00,,,0.03,,2013-04-19 05:31:00,
2013-04-18 19:42:00,72.0,65.0,30.13,East,88,7.0,22.0,79,0.00,,,0.03,,2013-04-19 05:42:00,
2013-04-18 19:52:00,72.0,65.0,30.14,ENE,78,10.0,19.0,78,0.00,,,0.03,,2013-04-19 05:52:00,
2013-04-18 20:01:00,72.0,65.0,30.13,NE,56,11.0,18.0,78,0.00,,,0.03,,2013-04-19 06:01:00,
2013-04-18 20:11:00,72.0,65.0,30.14,ENE,57,6.0,15.0,78,0.00,,,0.03,,2013-04-19 06:11:00,
2013-04-18 20:22:00,72.0,65.0,30.14,ENE,57,6.0,15.0,78,0.00,,,0.03,,2013-04-19 06:22:00,
2013-04-18 20:31:00,72.0,65.0,30.14,East,79,5.0,11.0,78,0.00,,,0.03,,2013-04-19 06:31:00,
2013-04-18 20:42:00,72.0,65.0,30.14,East,79,5.0,11.0,78,0.00,,,0.03,,2013-04-19 06:42:00,
2013-04-18 20:52:00,72.0,65.0,30.14,ENE,58,5.0,16.0,78,0.00,,,0.03,,2013-04-19 06:52:00,
2013-04-18 21:01:00,72.0,65.0,30.15,ENE,59,8.0,17.0,78,0.00,,,0.03,,2013-04-19 07:01:00,
2013-04-18 21:11:00,72.0,65.0,30.15,NE,53,7.0,18.0,78,0.00,,,0.03,,2013-04-19 07:11:00,
2013-04-18 21:21:00,72.0,65.0,30.15,NE,53,7.0,18.0,78,0.00,,,0.03,,2013-04-19 07:21:00,
2013-04-18 21:31:00,72.0,65.0,30.15,NNE,25,8.0,16.0,79,0.00,,,0.03,,2013-04-19 07:31:00,
2013-04-18 21:41:00,72.0,65.0,30.15,NNE,25,8.0,16.0,79,0.00,,,0.03,,2013-04-19 07:41:00,
2013-04-18 21:52:00,72.0,65.0,30.15,East,80,8.0,16.0,78,0.00,,,0.03,,2013-04-19 07:52:00,
2013-04-18 22:02:00,72.0,65.0,30.15,East,80,8.0,16.0,78,0.00,,,0.03,,2013-04-19 08:02:00,
2013-04-18 22:12:00,72.0,65.0,30.15,East,80,8.0,16.0,78,0.00,,,0.03,,2013-04-19 08:12:00,
2013-04-18 22:21:00,72.0,65.0,30.15,East,80,8.0,16.0,78,0.00,,,0.03,,2013-04-19 08:21:00,